sensor_id;sensor_type;location;lat;lon;timestamp;P1;durP1;ratioP1;P2;durP2;ratioP2
39776;SDS011;25453;48.162;14.510;2022-11-21T00:01:17;4.95;;;2.30;;
39776;SDS011;25453;48.162;14.510;2022-11-21T00:03:58;5.53;;;2.75;;
39776;SDS011;25453;48.162;14.510;2022-11-21T00:06:32;4.95;;;2.15;;
39776;SDS011;25453;48.162;14.510;2022-11-21T00:09:00;5.60;;;2.58;;
39776;SDS011;25453;48.162;14.510;2022-11-21T00:11:35;4.43;;;1.92;;
39776;SDS011;25453;48.162;14.510;2022-11-21T00:14:03;3.22;;;1.95;;
39776;SDS011;25453;48.162;14.510;2022-11-21T00:16:37;5.78;;;2.17;;
39776;SDS011;25453;48.162;14.510;2022-11-21T00:19:11;5.15;;;2.08;;
39776;SDS011;25453;48.162;14.510;2022-11-21T00:21:45;4.47;;;1.83;;
39776;SDS011;25453;48.162;14.510;2022-11-21T00:24:12;4.88;;;2.40;;
39776;SDS011;25453;48.162;14.510;2022-11-21T00:26:46;3.10;;;1.58;;
39776;SDS011;25453;48.162;14.510;2022-11-21T00:29:15;3.75;;;1.48;;
39776;SDS011;25453;48.162;14.510;2022-11-21T00:31:43;3.13;;;1.83;;
39776;SDS011;25453;48.162;14.510;2022-11-21T00:34:17;2.63;;;1.17;;
39776;SDS011;25453;48.162;14.510;2022-11-21T00:36:45;2.53;;;1.15;;
39776;SDS011;25453;48.162;14.510;2022-11-21T00:39:23;2.50;;;1.00;;
39776;SDS011;25453;48.162;14.510;2022-11-21T00:41:50;2.70;;;1.38;;
39776;SDS011;25453;48.162;14.510;2022-11-21T00:44:24;2.88;;;1.00;;
39776;SDS011;25453;48.162;14.510;2022-11-21T00:46:58;2.42;;;1.08;;
39776;SDS011;25453;48.162;14.510;2022-11-21T00:49:32;2.20;;;0.90;;
39776;SDS011;25453;48.162;14.510;2022-11-21T00:52:06;2.50;;;0.80;;
39776;SDS011;25453;48.162;14.510;2022-11-21T00:54:34;2.05;;;0.80;;
39776;SDS011;25453;48.162;14.510;2022-11-21T00:57:07;1.75;;;0.95;;
39776;SDS011;25453;48.162;14.510;2022-11-21T00:59:41;2.23;;;0.87;;
39776;SDS011;25453;48.162;14.510;2022-11-21T01:02:15;4.05;;;1.50;;
39776;SDS011;25453;48.162;14.510;2022-11-21T01:04:43;3.35;;;1.27;;
39776;SDS011;25453;48.162;14.510;2022-11-21T01:07:16;5.25;;;2.30;;
39776;SDS011;25453;48.162;14.510;2022-11-21T01:09:44;4.78;;;2.13;;
39776;SDS011;25453;48.162;14.510;2022-11-21T01:12:17;6.28;;;2.22;;
39776;SDS011;25453;48.162;14.510;2022-11-21T01:14:51;7.77;;;3.00;;
39776;SDS011;25453;48.162;14.510;2022-11-21T01:17:19;8.65;;;3.55;;
39776;SDS011;25453;48.162;14.510;2022-11-21T01:19:55;7.85;;;3.60;;
39776;SDS011;25453;48.162;14.510;2022-11-21T01:22:29;10.80;;;4.00;;
39776;SDS011;25453;48.162;14.510;2022-11-21T01:24:58;6.28;;;3.35;;
39776;SDS011;25453;48.162;14.510;2022-11-21T01:27:32;7.13;;;3.17;;
39776;SDS011;25453;48.162;14.510;2022-11-21T01:30:15;10.68;;;3.30;;
39776;SDS011;25453;48.162;14.510;2022-11-21T01:32:55;8.20;;;3.00;;
39776;SDS011;25453;48.162;14.510;2022-11-21T01:35:28;8.60;;;2.92;;
39776;SDS011;25453;48.162;14.510;2022-11-21T01:37:56;5.80;;;3.22;;
39776;SDS011;25453;48.162;14.510;2022-11-21T01:40:38;6.95;;;2.90;;
39776;SDS011;25453;48.162;14.510;2022-11-21T01:43:10;4.45;;;2.20;;
39776;SDS011;25453;48.162;14.510;2022-11-21T01:53:38;5.35;;;2.25;;
39776;SDS011;25453;48.162;14.510;2022-11-21T01:56:15;4.40;;;2.13;;
39776;SDS011;25453;48.162;14.510;2022-11-21T01:58:42;5.70;;;2.28;;
39776;SDS011;25453;48.162;14.510;2022-11-21T02:01:18;6.07;;;2.72;;
39776;SDS011;25453;48.162;14.510;2022-11-21T02:03:53;3.55;;;2.17;;
39776;SDS011;25453;48.162;14.510;2022-11-21T02:06:23;4.78;;;2.33;;
39776;SDS011;25453;48.162;14.510;2022-11-21T02:08:59;4.57;;;2.15;;
39776;SDS011;25453;48.162;14.510;2022-11-21T02:14:10;4.88;;;2.28;;
39776;SDS011;25453;48.162;14.510;2022-11-21T02:16:38;6.32;;;2.92;;
39776;SDS011;25453;48.162;14.510;2022-11-21T02:19:20;9.02;;;2.90;;
39776;SDS011;25453;48.162;14.510;2022-11-21T02:27:38;5.20;;;2.28;;
39776;SDS011;25453;48.162;14.510;2022-11-21T02:30:11;4.85;;;2.30;;
39776;SDS011;25453;48.162;14.510;2022-11-21T02:32:46;6.73;;;2.80;;
39776;SDS011;25453;48.162;14.510;2022-11-21T02:35:19;6.80;;;2.38;;
39776;SDS011;25453;48.162;14.510;2022-11-21T02:46:14;5.40;;;2.28;;
39776;SDS011;25453;48.162;14.510;2022-11-21T02:48:41;4.53;;;2.10;;
39776;SDS011;25453;48.162;14.510;2022-11-21T02:51:09;4.55;;;2.38;;
39776;SDS011;25453;48.162;14.510;2022-11-21T02:53:43;5.53;;;2.03;;
39776;SDS011;25453;48.162;14.510;2022-11-21T02:56:11;4.75;;;2.00;;
39776;SDS011;25453;48.162;14.510;2022-11-21T02:58:49;4.95;;;2.25;;
39776;SDS011;25453;48.162;14.510;2022-11-21T03:01:16;4.50;;;1.55;;
39776;SDS011;25453;48.162;14.510;2022-11-21T03:03:50;3.50;;;1.30;;
39776;SDS011;25453;48.162;14.510;2022-11-21T03:06:18;3.10;;;1.50;;
39776;SDS011;25453;48.162;14.510;2022-11-21T03:08:45;1.88;;;1.05;;
39776;SDS011;25453;48.162;14.510;2022-11-21T03:11:18;2.00;;;1.00;;
39776;SDS011;25453;48.162;14.510;2022-11-21T03:13:46;2.53;;;0.98;;
39776;SDS011;25453;48.162;14.510;2022-11-21T03:16:20;2.38;;;1.13;;
39776;SDS011;25453;48.162;14.510;2022-11-21T03:18:53;1.45;;;0.80;;
39776;SDS011;25453;48.162;14.510;2022-11-21T03:21:22;1.60;;;0.82;;
39776;SDS011;25453;48.162;14.510;2022-11-21T03:23:55;2.25;;;0.90;;
39776;SDS011;25453;48.162;14.510;2022-11-21T03:26:23;1.73;;;0.70;;
39776;SDS011;25453;48.162;14.510;2022-11-21T03:28:56;1.75;;;0.80;;
39776;SDS011;25453;48.162;14.510;2022-11-21T03:31:30;1.65;;;0.77;;
39776;SDS011;25453;48.162;14.510;2022-11-21T03:34:04;1.70;;;0.60;;
39776;SDS011;25453;48.162;14.510;2022-11-21T03:36:45;1.10;;;0.70;;
39776;SDS011;25453;48.162;14.510;2022-11-21T03:39:25;2.13;;;0.82;;
39776;SDS011;25453;48.162;14.510;2022-11-21T03:41:59;1.33;;;0.70;;
39776;SDS011;25453;48.162;14.510;2022-11-21T03:44:28;3.35;;;1.00;;
39776;SDS011;25453;48.162;14.510;2022-11-21T03:47:01;1.73;;;0.80;;
39776;SDS011;25453;48.162;14.510;2022-11-21T03:49:29;1.75;;;0.80;;
39776;SDS011;25453;48.162;14.510;2022-11-21T03:52:02;0.73;;;0.55;;
39776;SDS011;25453;48.162;14.510;2022-11-21T03:54:36;1.90;;;0.70;;
39776;SDS011;25453;48.162;14.510;2022-11-21T03:57:10;1.88;;;0.90;;
39776;SDS011;25453;48.162;14.510;2022-11-21T03:59:38;1.20;;;0.50;;
39776;SDS011;25453;48.162;14.510;2022-11-21T04:02:11;1.10;;;0.70;;
39776;SDS011;25453;48.162;14.510;2022-11-21T04:04:39;0.80;;;0.50;;
39776;SDS011;25453;48.162;14.510;2022-11-21T04:07:06;1.52;;;0.70;;
39776;SDS011;25453;48.162;14.510;2022-11-21T04:09:40;0.73;;;0.60;;
39776;SDS011;25453;48.162;14.510;2022-11-21T04:12:08;0.75;;;0.57;;
39776;SDS011;25453;48.162;14.510;2022-11-21T04:14:41;2.00;;;0.65;;
39776;SDS011;25453;48.162;14.510;2022-11-21T04:17:09;1.83;;;0.80;;
39776;SDS011;25453;48.162;14.510;2022-11-21T04:19:36;1.13;;;0.47;;
39776;SDS011;25453;48.162;14.510;2022-11-21T04:22:11;0.75;;;0.65;;
39776;SDS011;25453;48.162;14.510;2022-11-21T04:24:38;0.68;;;0.45;;
39776;SDS011;25453;48.162;14.510;2022-11-21T04:27:12;1.27;;;0.60;;
39776;SDS011;25453;48.162;14.510;2022-11-21T04:29:40;0.70;;;0.45;;
39776;SDS011;25453;48.162;14.510;2022-11-21T04:32:13;0.98;;;0.70;;
39776;SDS011;25453;48.162;14.510;2022-11-21T04:34:47;1.13;;;0.38;;
39776;SDS011;25453;48.162;14.510;2022-11-21T04:37:21;0.80;;;0.40;;
39776;SDS011;25453;48.162;14.510;2022-11-21T04:39:54;0.60;;;0.30;;
39776;SDS011;25453;48.162;14.510;2022-11-21T04:42:36;1.23;;;0.52;;
39776;SDS011;25453;48.162;14.510;2022-11-21T04:45:03;0.88;;;0.30;;
39776;SDS011;25453;48.162;14.510;2022-11-21T04:47:31;1.25;;;0.50;;
39776;SDS011;25453;48.162;14.510;2022-11-21T04:50:08;0.30;;;0.20;;
39776;SDS011;25453;48.162;14.510;2022-11-21T04:52:37;0.40;;;0.22;;
39776;SDS011;25453;48.162;14.510;2022-11-21T04:55:11;0.52;;;0.20;;
39776;SDS011;25453;48.162;14.510;2022-11-21T04:57:38;2.10;;;0.50;;
39776;SDS011;25453;48.162;14.510;2022-11-21T05:00:06;0.63;;;0.30;;
39776;SDS011;25453;48.162;14.510;2022-11-21T05:02:47;0.50;;;0.40;;
39776;SDS011;25453;48.162;14.510;2022-11-21T05:05:15;0.60;;;0.50;;
39776;SDS011;25453;48.162;14.510;2022-11-21T05:07:48;0.45;;;0.32;;
39776;SDS011;25453;48.162;14.510;2022-11-21T05:10:16;0.73;;;0.35;;
39776;SDS011;25453;48.162;14.510;2022-11-21T05:12:59;1.38;;;0.35;;
39776;SDS011;25453;48.162;14.510;2022-11-21T05:15:55;0.65;;;0.30;;
39776;SDS011;25453;48.162;14.510;2022-11-21T05:18:22;0.70;;;0.30;;
39776;SDS011;25453;48.162;14.510;2022-11-21T05:20:57;0.95;;;0.40;;
39776;SDS011;25453;48.162;14.510;2022-11-21T05:23:32;0.80;;;0.40;;
39776;SDS011;25453;48.162;14.510;2022-11-21T05:26:00;1.63;;;0.47;;
39776;SDS011;25453;48.162;14.510;2022-11-21T05:28:33;1.35;;;0.40;;
39776;SDS011;25453;48.162;14.510;2022-11-21T05:31:01;2.00;;;0.30;;
39776;SDS011;25453;48.162;14.510;2022-11-21T05:33:35;0.70;;;0.30;;
39776;SDS011;25453;48.162;14.510;2022-11-21T05:36:02;0.30;;;0.20;;
39776;SDS011;25453;48.162;14.510;2022-11-21T05:38:43;0.50;;;0.30;;
39776;SDS011;25453;48.162;14.510;2022-11-21T05:41:17;2.45;;;0.30;;
39776;SDS011;25453;48.162;14.510;2022-11-21T05:43:50;0.73;;;0.28;;
39776;SDS011;25453;48.162;14.510;2022-11-21T05:46:18;0.75;;;0.30;;
39776;SDS011;25453;48.162;14.510;2022-11-21T05:48:54;0.20;;;0.20;;
39776;SDS011;25453;48.162;14.510;2022-11-21T05:51:22;0.20;;;0.20;;
39776;SDS011;25453;48.162;14.510;2022-11-21T05:53:57;0.50;;;0.30;;
39776;SDS011;25453;48.162;14.510;2022-11-21T05:56:25;0.40;;;0.20;;
39776;SDS011;25453;48.162;14.510;2022-11-21T05:58:59;0.83;;;0.33;;
39776;SDS011;25453;48.162;14.510;2022-11-21T06:01:26;0.45;;;0.20;;
39776;SDS011;25453;48.162;14.510;2022-11-21T06:04:19;0.47;;;0.20;;
39776;SDS011;25453;48.162;14.510;2022-11-21T06:06:53;0.27;;;0.23;;
39776;SDS011;25453;48.162;14.510;2022-11-21T06:09:27;0.47;;;0.32;;
39776;SDS011;25453;48.162;14.510;2022-11-21T06:12:01;0.25;;;0.20;;
39776;SDS011;25453;48.162;14.510;2022-11-21T06:14:28;0.30;;;0.30;;
39776;SDS011;25453;48.162;14.510;2022-11-21T06:17:02;0.45;;;0.30;;
39776;SDS011;25453;48.162;14.510;2022-11-21T06:19:29;0.40;;;0.30;;
39776;SDS011;25453;48.162;14.510;2022-11-21T06:22:03;0.50;;;0.30;;
39776;SDS011;25453;48.162;14.510;2022-11-21T06:24:31;1.48;;;0.40;;
39776;SDS011;25453;48.162;14.510;2022-11-21T06:26:58;0.68;;;0.32;;
39776;SDS011;25453;48.162;14.510;2022-11-21T06:29:33;0.90;;;0.60;;
39776;SDS011;25453;48.162;14.510;2022-11-21T06:32:00;1.02;;;0.47;;
39776;SDS011;25453;48.162;14.510;2022-11-21T06:34:27;1.48;;;0.60;;
39776;SDS011;25453;48.162;14.510;2022-11-21T06:37:07;0.75;;;0.38;;
39776;SDS011;25453;48.162;14.510;2022-11-21T06:39:47;0.73;;;0.40;;
39776;SDS011;25453;48.162;14.510;2022-11-21T06:42:21;0.77;;;0.35;;
39776;SDS011;25453;48.162;14.510;2022-11-21T06:44:55;0.63;;;0.30;;
39776;SDS011;25453;48.162;14.510;2022-11-21T06:47:23;1.15;;;0.30;;
39776;SDS011;25453;48.162;14.510;2022-11-21T06:49:50;0.50;;;0.40;;
39776;SDS011;25453;48.162;14.510;2022-11-21T06:52:25;0.70;;;0.45;;
39776;SDS011;25453;48.162;14.510;2022-11-21T06:55:02;1.17;;;0.40;;
39776;SDS011;25453;48.162;14.510;2022-11-21T06:57:30;0.30;;;0.30;;
39776;SDS011;25453;48.162;14.510;2022-11-21T07:00:05;0.68;;;0.30;;
39776;SDS011;25453;48.162;14.510;2022-11-21T07:02:33;1.88;;;0.40;;
39776;SDS011;25453;48.162;14.510;2022-11-21T07:05:07;0.77;;;0.22;;
39776;SDS011;25453;48.162;14.510;2022-11-21T07:07:41;0.40;;;0.40;;
39776;SDS011;25453;48.162;14.510;2022-11-21T07:10:16;1.83;;;0.40;;
39776;SDS011;25453;48.162;14.510;2022-11-21T07:12:43;1.13;;;0.32;;
39776;SDS011;25453;48.162;14.510;2022-11-21T07:15:34;1.05;;;0.30;;
39776;SDS011;25453;48.162;14.510;2022-11-21T07:18:02;0.80;;;0.32;;
39776;SDS011;25453;48.162;14.510;2022-11-21T07:20:29;0.63;;;0.40;;
39776;SDS011;25453;48.162;14.510;2022-11-21T07:23:03;1.00;;;0.32;;
39776;SDS011;25453;48.162;14.510;2022-11-21T07:25:30;1.48;;;0.68;;
39776;SDS011;25453;48.162;14.510;2022-11-21T07:28:05;0.22;;;0.22;;
39776;SDS011;25453;48.162;14.510;2022-11-21T07:30:33;1.27;;;0.40;;
39776;SDS011;25453;48.162;14.510;2022-11-21T07:33:08;0.63;;;0.30;;
39776;SDS011;25453;48.162;14.510;2022-11-21T07:35:36;0.45;;;0.30;;
39776;SDS011;25453;48.162;14.510;2022-11-21T07:38:16;0.73;;;0.40;;
39776;SDS011;25453;48.162;14.510;2022-11-21T07:40:59;0.70;;;0.30;;
39776;SDS011;25453;48.162;14.510;2022-11-21T07:43:26;0.98;;;0.50;;
39776;SDS011;25453;48.162;14.510;2022-11-21T07:46:01;0.75;;;0.25;;
39776;SDS011;25453;48.162;14.510;2022-11-21T07:48:28;0.32;;;0.30;;
39776;SDS011;25453;48.162;14.510;2022-11-21T07:51:02;0.65;;;0.30;;
39776;SDS011;25453;48.162;14.510;2022-11-21T07:53:36;0.50;;;0.40;;
39776;SDS011;25453;48.162;14.510;2022-11-21T07:56:04;0.43;;;0.30;;
39776;SDS011;25453;48.162;14.510;2022-11-21T07:58:41;1.25;;;0.40;;
39776;SDS011;25453;48.162;14.510;2022-11-21T08:01:09;1.40;;;0.35;;
39776;SDS011;25453;48.162;14.510;2022-11-21T08:03:43;0.70;;;0.30;;
39776;SDS011;25453;48.162;14.510;2022-11-21T08:06:16;0.32;;;0.17;;
39776;SDS011;25453;48.162;14.510;2022-11-21T08:08:44;2.38;;;0.40;;
39776;SDS011;25453;48.162;14.510;2022-11-21T08:11:18;0.75;;;0.40;;
39776;SDS011;25453;48.162;14.510;2022-11-21T08:13:45;0.28;;;0.20;;
39776;SDS011;25453;48.162;14.510;2022-11-21T08:16:13;0.47;;;0.30;;
39776;SDS011;25453;48.162;14.510;2022-11-21T08:18:47;0.70;;;0.25;;
39776;SDS011;25453;48.162;14.510;2022-11-21T08:21:16;0.40;;;0.20;;
39776;SDS011;25453;48.162;14.510;2022-11-21T08:23:51;0.93;;;0.40;;
39776;SDS011;25453;48.162;14.510;2022-11-21T08:26:18;0.32;;;0.30;;
39776;SDS011;25453;48.162;14.510;2022-11-21T08:28:46;0.35;;;0.20;;
39776;SDS011;25453;48.162;14.510;2022-11-21T08:31:25;0.57;;;0.25;;
39776;SDS011;25453;48.162;14.510;2022-11-21T08:33:59;1.23;;;0.30;;
39776;SDS011;25453;48.162;14.510;2022-11-21T08:36:26;0.77;;;0.40;;
39776;SDS011;25453;48.162;14.510;2022-11-21T08:39:07;0.68;;;0.20;;
39776;SDS011;25453;48.162;14.510;2022-11-21T08:41:47;1.50;;;0.52;;
39776;SDS011;25453;48.162;14.510;2022-11-21T08:44:35;0.70;;;0.30;;
39776;SDS011;25453;48.162;14.510;2022-11-21T08:47:09;0.65;;;0.30;;
39776;SDS011;25453;48.162;14.510;2022-11-21T08:49:36;1.73;;;0.40;;
39776;SDS011;25453;48.162;14.510;2022-11-21T08:52:04;1.85;;;0.32;;
39776;SDS011;25453;48.162;14.510;2022-11-21T08:54:38;0.73;;;0.50;;
39776;SDS011;25453;48.162;14.510;2022-11-21T08:57:06;0.68;;;0.30;;
39776;SDS011;25453;48.162;14.510;2022-11-21T08:59:39;0.75;;;0.40;;
39776;SDS011;25453;48.162;14.510;2022-11-21T09:02:08;1.27;;;0.30;;
39776;SDS011;25453;48.162;14.510;2022-11-21T09:04:43;0.77;;;0.40;;
39776;SDS011;25453;48.162;14.510;2022-11-21T09:07:11;0.68;;;0.30;;
39776;SDS011;25453;48.162;14.510;2022-11-21T09:09:45;2.28;;;0.30;;
39776;SDS011;25453;48.162;14.510;2022-11-21T09:12:12;1.23;;;0.30;;
39776;SDS011;25453;48.162;14.510;2022-11-21T09:14:45;0.60;;;0.55;;
39776;SDS011;25453;48.162;14.510;2022-11-21T09:17:43;1.25;;;0.43;;
39776;SDS011;25453;48.162;14.510;2022-11-21T09:20:38;0.85;;;0.47;;
39776;SDS011;25453;48.162;14.510;2022-11-21T09:23:14;1.00;;;0.30;;
39776;SDS011;25453;48.162;14.510;2022-11-21T09:25:42;1.17;;;0.25;;
39776;SDS011;25453;48.162;14.510;2022-11-21T09:28:16;0.30;;;0.20;;
39776;SDS011;25453;48.162;14.510;2022-11-21T09:30:44;1.00;;;0.40;;
39776;SDS011;25453;48.162;14.510;2022-11-21T09:33:18;0.70;;;0.20;;
39776;SDS011;25453;48.162;14.510;2022-11-21T09:35:45;0.70;;;0.30;;
39776;SDS011;25453;48.162;14.510;2022-11-21T09:38:25;0.68;;;0.30;;
39776;SDS011;25453;48.162;14.510;2022-11-21T09:41:54;0.20;;;0.20;;
39776;SDS011;25453;48.162;14.510;2022-11-21T09:47:26;0.17;;;0.10;;
39776;SDS011;25453;48.162;14.510;2022-11-21T09:50:12;0.28;;;0.15;;
39776;SDS011;25453;48.162;14.510;2022-11-21T09:56:13;0.88;;;0.30;;
39776;SDS011;25453;48.162;14.510;2022-11-21T09:59:30;0.65;;;0.28;;
39776;SDS011;25453;48.162;14.510;2022-11-21T10:02:02;0.10;;;0.10;;
39776;SDS011;25453;48.162;14.510;2022-11-21T10:04:42;0.30;;;0.30;;
39776;SDS011;25453;48.162;14.510;2022-11-21T10:07:20;0.65;;;0.20;;
39776;SDS011;25453;48.162;14.510;2022-11-21T10:19:19;0.73;;;0.32;;
39776;SDS011;25453;48.162;14.510;2022-11-21T10:24:52;0.32;;;0.25;;
39776;SDS011;25453;48.162;14.510;2022-11-21T10:27:54;1.48;;;0.50;;
39776;SDS011;25453;48.162;14.510;2022-11-21T10:30:33;0.40;;;0.20;;
39776;SDS011;25453;48.162;14.510;2022-11-21T10:42:16;0.73;;;0.68;;
39776;SDS011;25453;48.162;14.510;2022-11-21T10:44:50;0.65;;;0.20;;
39776;SDS011;25453;48.162;14.510;2022-11-21T10:47:37;2.88;;;0.50;;
39776;SDS011;25453;48.162;14.510;2022-11-21T10:50:14;1.85;;;0.35;;
39776;SDS011;25453;48.162;14.510;2022-11-21T10:53:17;1.65;;;0.38;;
39776;SDS011;25453;48.162;14.510;2022-11-21T10:58:44;1.15;;;0.40;;
39776;SDS011;25453;48.162;14.510;2022-11-21T11:04:04;3.10;;;0.60;;
39776;SDS011;25453;48.162;14.510;2022-11-21T11:10:15;0.65;;;0.30;;
39776;SDS011;25453;48.162;14.510;2022-11-21T11:12:55;1.45;;;0.50;;
39776;SDS011;25453;48.162;14.510;2022-11-21T11:18:36;2.70;;;0.50;;
39776;SDS011;25453;48.162;14.510;2022-11-21T11:21:23;1.52;;;0.35;;
39776;SDS011;25453;48.162;14.510;2022-11-21T11:23:54;0.88;;;0.50;;
39776;SDS011;25453;48.162;14.510;2022-11-21T11:29:19;0.82;;;0.50;;
39776;SDS011;25453;48.162;14.510;2022-11-21T11:34:26;0.30;;;0.20;;
39776;SDS011;25453;48.162;14.510;2022-11-21T11:43:20;0.55;;;0.45;;
39776;SDS011;25453;48.162;14.510;2022-11-21T11:49:34;1.30;;;0.50;;
39776;SDS011;25453;48.162;14.510;2022-11-21T11:52:32;0.25;;;0.22;;
39776;SDS011;25453;48.162;14.510;2022-11-21T11:55:05;0.50;;;0.20;;
39776;SDS011;25453;48.162;14.510;2022-11-21T11:57:48;1.88;;;0.30;;
39776;SDS011;25453;48.162;14.510;2022-11-21T12:00:34;0.68;;;0.30;;
39776;SDS011;25453;48.162;14.510;2022-11-21T12:06:37;1.10;;;0.40;;
39776;SDS011;25453;48.162;14.510;2022-11-21T12:09:38;0.40;;;0.30;;
39776;SDS011;25453;48.162;14.510;2022-11-21T12:15:02;1.85;;;0.40;;
39776;SDS011;25453;48.162;14.510;2022-11-21T12:23:40;0.30;;;0.30;;
39776;SDS011;25453;48.162;14.510;2022-11-21T12:26:33;0.55;;;0.30;;
39776;SDS011;25453;48.162;14.510;2022-11-21T12:29:29;0.50;;;0.22;;
39776;SDS011;25453;48.162;14.510;2022-11-21T12:32:12;1.92;;;0.22;;
39776;SDS011;25453;48.162;14.510;2022-11-21T12:35:01;0.52;;;0.22;;
39776;SDS011;25453;48.162;14.510;2022-11-21T12:43:27;0.65;;;0.30;;
39776;SDS011;25453;48.162;14.510;2022-11-21T12:55:13;2.15;;;0.35;;
39776;SDS011;25453;48.162;14.510;2022-11-21T13:00:51;2.53;;;0.22;;
39776;SDS011;25453;48.162;14.510;2022-11-21T13:04:00;1.08;;;0.57;;
39776;SDS011;25453;48.162;14.510;2022-11-21T13:06:38;0.52;;;0.32;;
39776;SDS011;25453;48.162;14.510;2022-11-21T13:09:12;1.00;;;0.38;;
39776;SDS011;25453;48.162;14.510;2022-11-21T13:22:48;2.17;;;0.40;;
39776;SDS011;25453;48.162;14.510;2022-11-21T13:44:46;2.25;;;0.65;;
39776;SDS011;25453;48.162;14.510;2022-11-21T13:50:33;0.88;;;0.30;;
39776;SDS011;25453;48.162;14.510;2022-11-21T14:02:13;0.40;;;0.10;;
39776;SDS011;25453;48.162;14.510;2022-11-21T14:13:58;0.60;;;0.20;;
39776;SDS011;25453;48.162;14.510;2022-11-21T14:16:42;1.80;;;0.40;;
39776;SDS011;25453;48.162;14.510;2022-11-21T14:19:19;0.68;;;0.30;;
39776;SDS011;25453;48.162;14.510;2022-11-21T14:21:50;0.93;;;0.32;;
39776;SDS011;25453;48.162;14.510;2022-11-21T14:24:24;2.25;;;0.30;;
39776;SDS011;25453;48.162;14.510;2022-11-21T14:26:51;0.73;;;0.30;;
39776;SDS011;25453;48.162;14.510;2022-11-21T14:29:28;1.65;;;0.30;;
39776;SDS011;25453;48.162;14.510;2022-11-21T14:32:15;1.63;;;0.60;;
39776;SDS011;25453;48.162;14.510;2022-11-21T14:34:42;0.77;;;0.45;;
39776;SDS011;25453;48.162;14.510;2022-11-21T14:37:16;0.70;;;0.30;;
39776;SDS011;25453;48.162;14.510;2022-11-21T14:39:50;1.48;;;0.35;;
39776;SDS011;25453;48.162;14.510;2022-11-21T14:42:32;0.47;;;0.30;;
39776;SDS011;25453;48.162;14.510;2022-11-21T14:45:15;0.55;;;0.22;;
39776;SDS011;25453;48.162;14.510;2022-11-21T14:47:52;0.35;;;0.10;;
39776;SDS011;25453;48.162;14.510;2022-11-21T14:50:24;0.28;;;0.20;;
39776;SDS011;25453;48.162;14.510;2022-11-21T14:52:52;0.20;;;0.20;;
39776;SDS011;25453;48.162;14.510;2022-11-21T14:55:30;0.43;;;0.20;;
39776;SDS011;25453;48.162;14.510;2022-11-21T14:57:59;0.52;;;0.20;;
39776;SDS011;25453;48.162;14.510;2022-11-21T15:00:36;1.05;;;0.28;;
39776;SDS011;25453;48.162;14.510;2022-11-21T15:03:25;0.43;;;0.30;;
39776;SDS011;25453;48.162;14.510;2022-11-21T15:06:03;0.55;;;0.20;;
39776;SDS011;25453;48.162;14.510;2022-11-21T15:08:43;1.17;;;0.22;;
39776;SDS011;25453;48.162;14.510;2022-11-21T15:14:38;0.32;;;0.20;;
39776;SDS011;25453;48.162;14.510;2022-11-21T15:17:25;2.85;;;0.20;;
39776;SDS011;25453;48.162;14.510;2022-11-21T15:22:46;0.40;;;0.20;;
39776;SDS011;25453;48.162;14.510;2022-11-21T15:25:16;0.60;;;0.22;;
39776;SDS011;25453;48.162;14.510;2022-11-21T15:30:33;0.68;;;0.28;;
39776;SDS011;25453;48.162;14.510;2022-11-21T15:33:13;0.63;;;0.40;;
39776;SDS011;25453;48.162;14.510;2022-11-21T15:35:48;0.68;;;0.28;;
39776;SDS011;25453;48.162;14.510;2022-11-21T15:38:25;1.27;;;0.38;;
39776;SDS011;25453;48.162;14.510;2022-11-21T15:46:33;2.53;;;0.50;;
39776;SDS011;25453;48.162;14.510;2022-11-21T15:49:11;1.35;;;0.52;;
39776;SDS011;25453;48.162;14.510;2022-11-21T15:52:06;0.80;;;0.45;;
39776;SDS011;25453;48.162;14.510;2022-11-21T15:54:37;2.33;;;0.70;;
39776;SDS011;25453;48.162;14.510;2022-11-21T15:57:12;0.60;;;0.50;;
39776;SDS011;25453;48.162;14.510;2022-11-21T15:59:47;1.30;;;0.70;;
39776;SDS011;25453;48.162;14.510;2022-11-21T16:02:15;2.97;;;1.13;;
39776;SDS011;25453;48.162;14.510;2022-11-21T16:04:48;2.13;;;0.60;;
39776;SDS011;25453;48.162;14.510;2022-11-21T16:07:16;1.83;;;0.70;;
39776;SDS011;25453;48.162;14.510;2022-11-21T16:09:50;2.65;;;1.05;;
39776;SDS011;25453;48.162;14.510;2022-11-21T16:12:23;2.50;;;0.80;;
39776;SDS011;25453;48.162;14.510;2022-11-21T16:14:58;2.43;;;0.90;;
39776;SDS011;25453;48.162;14.510;2022-11-21T16:17:25;1.42;;;0.70;;
39776;SDS011;25453;48.162;14.510;2022-11-21T16:19:58;2.50;;;0.80;;
39776;SDS011;25453;48.162;14.510;2022-11-21T16:22:32;2.58;;;0.85;;
39776;SDS011;25453;48.162;14.510;2022-11-21T16:25:12;2.20;;;0.80;;
39776;SDS011;25453;48.162;14.510;2022-11-21T16:27:46;2.60;;;1.03;;
39776;SDS011;25453;48.162;14.510;2022-11-21T16:30:14;2.50;;;0.82;;
39776;SDS011;25453;48.162;14.510;2022-11-21T16:32:47;2.17;;;0.90;;
39776;SDS011;25453;48.162;14.510;2022-11-21T16:35:16;1.05;;;0.60;;
39776;SDS011;25453;48.162;14.510;2022-11-21T16:37:51;1.67;;;0.80;;
39776;SDS011;25453;48.162;14.510;2022-11-21T16:43:06;2.38;;;1.20;;
39776;SDS011;25453;48.162;14.510;2022-11-21T16:45:42;2.25;;;1.13;;
39776;SDS011;25453;48.162;14.510;2022-11-21T16:48:09;2.45;;;1.17;;
39776;SDS011;25453;48.162;14.510;2022-11-21T16:50:43;4.63;;;1.45;;
39776;SDS011;25453;48.162;14.510;2022-11-21T16:53:10;2.92;;;1.33;;
39776;SDS011;25453;48.162;14.510;2022-11-21T16:55:39;4.50;;;1.80;;
39776;SDS011;25453;48.162;14.510;2022-11-21T16:58:13;3.30;;;1.27;;
39776;SDS011;25453;48.162;14.510;2022-11-21T17:00:40;4.43;;;1.48;;
39776;SDS011;25453;48.162;14.510;2022-11-21T17:03:14;2.70;;;1.50;;
39776;SDS011;25453;48.162;14.510;2022-11-21T17:05:41;2.92;;;1.45;;
39776;SDS011;25453;48.162;14.510;2022-11-21T17:08:15;2.97;;;1.70;;
39776;SDS011;25453;48.162;14.510;2022-11-21T17:10:42;3.35;;;1.50;;
39776;SDS011;25453;48.162;14.510;2022-11-21T17:13:16;2.35;;;1.40;;
39776;SDS011;25453;48.162;14.510;2022-11-21T17:15:43;2.25;;;1.30;;
39776;SDS011;25453;48.162;14.510;2022-11-21T17:18:16;4.70;;;1.60;;
39776;SDS011;25453;48.162;14.510;2022-11-21T17:20:44;3.55;;;1.15;;
39776;SDS011;25453;48.162;14.510;2022-11-21T17:23:18;4.00;;;1.67;;
39776;SDS011;25453;48.162;14.510;2022-11-21T17:25:52;3.15;;;1.45;;
39776;SDS011;25453;48.162;14.510;2022-11-21T17:28:19;2.70;;;1.30;;
39776;SDS011;25453;48.162;14.510;2022-11-21T17:30:53;2.15;;;1.20;;
39776;SDS011;25453;48.162;14.510;2022-11-21T17:33:27;2.83;;;1.35;;
39776;SDS011;25453;48.162;14.510;2022-11-21T17:35:55;3.33;;;1.58;;
39776;SDS011;25453;48.162;14.510;2022-11-21T17:38:30;2.72;;;1.40;;
39776;SDS011;25453;48.162;14.510;2022-11-21T17:41:11;4.72;;;1.90;;
39776;SDS011;25453;48.162;14.510;2022-11-21T17:43:46;2.85;;;1.50;;
39776;SDS011;25453;48.162;14.510;2022-11-21T17:46:21;3.78;;;1.50;;
39776;SDS011;25453;48.162;14.510;2022-11-21T17:48:51;3.08;;;1.30;;
39776;SDS011;25453;48.162;14.510;2022-11-21T17:51:27;4.07;;;1.52;;
39776;SDS011;25453;48.162;14.510;2022-11-21T17:53:56;2.88;;;1.58;;
39776;SDS011;25453;48.162;14.510;2022-11-21T17:56:31;3.78;;;1.70;;
39776;SDS011;25453;48.162;14.510;2022-11-21T17:59:00;3.40;;;1.42;;
39776;SDS011;25453;48.162;14.510;2022-11-21T18:01:33;4.18;;;1.65;;
39776;SDS011;25453;48.162;14.510;2022-11-21T18:04:04;3.42;;;1.58;;
39776;SDS011;25453;48.162;14.510;2022-11-21T18:06:40;3.28;;;1.45;;
39776;SDS011;25453;48.162;14.510;2022-11-21T18:09:08;3.58;;;1.50;;
39776;SDS011;25453;48.162;14.510;2022-11-21T18:11:42;3.90;;;1.73;;
39776;SDS011;25453;48.162;14.510;2022-11-21T18:14:11;4.97;;;2.30;;